createdAt,value
2018-05-12T00:01:22.830Z,25.17
2018-05-12T00:03:51.869Z,26.20
2018-05-12T00:06:20.153Z,24.90
2018-05-12T00:08:48.427Z,25.30
2018-05-12T00:11:16.730Z,21.30
2018-05-12T00:13:44.991Z,26.37
2018-05-12T00:16:13.301Z,25.37
2018-05-12T00:18:41.553Z,26.07
2018-05-12T00:21:09.849Z,26.27
2018-05-12T00:23:38.595Z,28.92
2018-05-12T00:26:06.878Z,29.13
2018-05-12T00:28:35.183Z,27.90
2018-05-12T00:31:03.439Z,33.37
2018-05-12T00:33:31.742Z,27.90
2018-05-12T00:36:00.028Z,28.53
2018-05-12T00:38:28.313Z,29.37
2018-05-12T00:40:56.606Z,27.00
2018-05-12T00:43:25.671Z,27.97
2018-05-12T00:45:53.978Z,27.70
2018-05-12T00:48:23.026Z,28.10
2018-05-12T00:50:51.314Z,25.90
2018-05-12T00:53:19.601Z,26.73
2018-05-12T00:55:47.884Z,26.70
2018-05-12T00:58:16.176Z,28.33
2018-05-12T01:00:44.414Z,28.63
2018-05-12T01:03:12.717Z,29.97
2018-05-12T01:05:40.991Z,27.07
2018-05-12T01:08:09.272Z,27.60
2018-05-12T01:10:37.593Z,29.67
2018-05-12T01:13:05.958Z,30.70
2018-05-12T01:15:34.933Z,28.33
2018-05-12T01:18:03.197Z,29.43
2018-05-12T01:20:31.512Z,28.20
2018-05-12T01:23:00.561Z,26.90
2018-05-12T01:25:29.593Z,29.47
2018-05-12T01:27:57.885Z,27.70
2018-05-12T01:30:26.145Z,29.90
2018-05-12T01:32:54.431Z,30.03
2018-05-12T01:35:23.489Z,33.40
2018-05-12T01:37:51.743Z,29.03
2018-05-12T01:40:20.046Z,29.43
2018-05-12T01:42:48.312Z,29.60
2018-05-12T01:45:16.614Z,30.30
2018-05-12T01:47:44.890Z,31.17
2018-05-12T01:50:13.155Z,30.37
2018-05-12T01:52:41.511Z,30.47
2018-05-12T01:55:09.829Z,33.00
2018-05-12T01:57:38.095Z,30.80
2018-05-12T02:00:06.362Z,31.63
2018-05-12T02:02:34.659Z,31.93
2018-05-12T02:05:02.935Z,31.33
2018-05-12T02:07:31.240Z,37.23
2018-05-12T02:09:59.497Z,31.10
2018-05-12T02:12:27.783Z,31.80
2018-05-12T02:14:56.077Z,30.80
2018-05-12T02:17:25.165Z,33.07
2018-05-12T02:19:54.257Z,33.00
2018-05-12T02:22:22.540Z,30.97
2018-05-12T02:24:50.798Z,32.83
2018-05-12T02:27:19.084Z,31.30
2018-05-12T02:29:48.141Z,31.13
2018-05-12T02:32:17.189Z,30.47
2018-05-12T02:34:45.529Z,31.70
2018-05-12T02:37:13.730Z,30.20
2018-05-12T02:39:42.002Z,34.23
2018-05-12T02:42:10.273Z,30.17
2018-05-12T02:44:38.570Z,31.40
2018-05-12T02:47:06.840Z,31.47
2018-05-12T02:49:35.143Z,31.80
2018-05-12T02:52:04.178Z,31.37
2018-05-12T02:54:32.510Z,30.90
2018-05-12T02:57:00.772Z,30.43
2018-05-12T02:59:29.077Z,30.60
2018-05-12T03:01:58.110Z,30.47
2018-05-12T03:04:26.380Z,31.93
2018-05-12T03:06:54.671Z,30.47
2018-05-12T03:09:22.934Z,30.17
2018-05-12T03:11:51.255Z,33.07
2018-05-12T03:14:19.519Z,29.70
2018-05-12T03:16:47.827Z,26.97
2018-05-12T03:19:16.083Z,28.67
2018-05-12T03:21:44.360Z,28.60
2018-05-12T03:24:12.669Z,29.73
2018-05-12T03:26:40.923Z,29.50
2018-05-12T03:29:09.249Z,29.70
2018-05-12T03:31:37.546Z,29.93
2018-05-12T03:34:05.850Z,29.47
2018-05-12T03:36:34.098Z,30.00
2018-05-12T03:39:02.425Z,29.63
2018-05-12T03:41:31.455Z,30.40
2018-05-12T03:43:59.724Z,32.90
2018-05-12T03:46:28.017Z,30.03
2018-05-12T03:48:56.288Z,30.27
2018-05-12T03:51:24.572Z,32.07
2018-05-12T03:53:53.458Z,31.80
2018-05-12T03:56:21.745Z,32.27
2018-05-12T03:58:50.770Z,33.87
2018-05-12T04:01:19.078Z,31.63
2018-05-12T04:03:48.125Z,32.17
2018-05-12T04:06:28.236Z,33.93
2018-05-12T04:09:08.277Z,33.07
2018-05-12T04:11:48.412Z,33.10
2018-05-12T04:14:16.700Z,33.10
2018-05-12T04:16:44.966Z,32.60
2018-05-12T04:19:13.259Z,35.27
2018-05-12T04:21:41.512Z,34.47
2018-05-12T04:24:09.821Z,32.70
2018-05-12T04:26:38.070Z,30.93
2018-05-12T04:29:06.370Z,33.30
2018-05-12T04:31:34.629Z,32.70
2018-05-12T04:34:02.936Z,32.57
2018-05-12T04:36:31.210Z,31.83
2018-05-12T04:38:59.465Z,33.67
2018-05-12T04:41:27.776Z,34.13
2018-05-12T04:43:56.031Z,33.90
2018-05-12T04:46:24.320Z,31.93
2018-05-12T04:48:52.578Z,31.73
2018-05-12T04:51:20.840Z,31.27
2018-05-12T04:53:49.134Z,30.13
2018-05-12T04:56:17.429Z,30.13
2018-05-12T04:58:45.694Z,28.30
2018-05-12T05:01:13.954Z,32.47
2018-05-12T05:03:42.245Z,31.13
2018-05-12T05:06:10.504Z,30.93
2018-05-12T05:08:40.498Z,29.47
2018-05-12T05:11:08.764Z,30.37
2018-05-12T05:13:37.024Z,30.53
2018-05-12T05:16:05.325Z,29.63
2018-05-12T05:18:33.611Z,29.53
2018-05-12T05:21:01.909Z,31.23
2018-05-12T05:23:30.186Z,31.60
2018-05-12T05:25:58.464Z,28.70
2018-05-12T05:28:29.552Z,31.87
2018-05-12T05:30:57.808Z,29.80
2018-05-12T05:33:26.177Z,30.63
2018-05-12T05:35:55.607Z,29.87
2018-05-12T05:38:23.856Z,32.20
2018-05-12T05:40:52.141Z,30.70
2018-05-12T05:43:20.485Z,28.97
2018-05-12T05:45:49.533Z,31.03
2018-05-12T05:48:17.800Z,29.80
2018-05-12T05:50:46.085Z,30.30
2018-05-12T05:53:14.348Z,30.10
2018-05-12T05:55:42.668Z,32.50
2018-05-12T05:58:11.467Z,29.23
2018-05-12T06:00:40.537Z,30.80
2018-05-12T06:03:08.901Z,29.53
2018-05-12T06:05:37.169Z,28.87
2018-05-12T06:08:05.462Z,28.93
2018-05-12T06:10:33.726Z,29.47
2018-05-12T06:13:02.078Z,30.77
2018-05-12T06:15:30.337Z,29.03
2018-05-12T06:17:58.677Z,29.17
2018-05-12T06:20:26.942Z,29.60
2018-05-12T06:22:55.219Z,29.00
2018-05-12T06:25:23.513Z,28.53
2018-05-12T06:27:51.777Z,32.10
2018-05-12T06:30:20.096Z,29.47
2018-05-12T06:32:50.055Z,28.20
2018-05-12T06:35:18.382Z,29.37
2018-05-12T06:37:47.419Z,28.03
2018-05-12T06:40:15.730Z,29.83
2018-05-12T06:42:44.011Z,31.10
2018-05-12T06:45:12.323Z,30.60
2018-05-12T06:47:41.375Z,29.63
2018-05-12T06:50:09.670Z,29.87
2018-05-12T06:52:37.953Z,29.23
2018-05-12T06:55:07.033Z,28.90
2018-05-12T06:57:35.345Z,30.70
2018-05-12T07:00:04.387Z,33.07
2018-05-12T07:02:32.701Z,31.83
2018-05-12T07:05:00.975Z,27.60
2018-05-12T07:07:29.252Z,30.87
2018-05-12T07:09:57.547Z,31.77
2018-05-12T07:12:26.896Z,28.20
2018-05-12T07:14:55.835Z,30.23
2018-05-12T07:17:24.090Z,30.53
2018-05-12T07:19:52.381Z,29.07
2018-05-12T07:22:21.453Z,30.13
2018-05-12T07:24:49.783Z,36.37
2018-05-12T07:27:18.815Z,31.33
2018-05-12T07:29:47.108Z,29.20
2018-05-12T07:32:15.381Z,30.80
2018-05-12T07:34:43.662Z,29.77
2018-05-12T07:37:11.960Z,30.07
2018-05-12T07:39:40.252Z,32.13
2018-05-12T07:42:08.537Z,32.07
2018-05-12T07:44:37.583Z,30.13
2018-05-12T07:47:05.869Z,31.73
2018-05-12T07:49:34.199Z,32.07
2018-05-12T07:52:03.251Z,31.07
2018-05-12T07:54:31.560Z,30.73
2018-05-12T07:56:59.852Z,30.17
2018-05-12T07:59:28.125Z,28.53
2018-05-12T08:01:57.174Z,32.20
2018-05-12T08:04:25.468Z,32.63
2018-05-12T08:06:53.737Z,29.17
2018-05-12T08:09:22.019Z,29.87
2018-05-12T08:11:50.332Z,31.43
2018-05-12T08:14:19.379Z,30.57
2018-05-12T08:16:47.671Z,33.40
2018-05-12T08:19:15.938Z,28.30
2018-05-12T08:21:44.237Z,29.13
2018-05-12T08:24:12.506Z,29.43
2018-05-12T08:26:41.603Z,28.93
2018-05-12T08:29:09.874Z,27.90
2018-05-12T08:31:38.162Z,29.20
2018-05-12T08:34:06.439Z,27.77
2018-05-12T08:36:34.711Z,28.53
2018-05-12T08:39:03.012Z,27.83
2018-05-12T08:41:31.294Z,27.00
2018-05-12T08:43:59.595Z,29.07
2018-05-12T08:46:27.852Z,25.73
2018-05-12T08:48:56.186Z,26.97
2018-05-12T08:51:24.499Z,25.90
2018-05-12T08:53:52.755Z,25.87
2018-05-12T08:56:21.070Z,25.40
2018-05-12T08:58:50.111Z,27.80
2018-05-12T09:01:18.409Z,25.30
2018-05-12T09:03:46.697Z,26.37
2018-05-12T09:06:14.993Z,25.30
2018-05-12T09:08:43.292Z,26.20
2018-05-12T09:11:11.560Z,26.00
2018-05-12T09:13:39.868Z,24.63
2018-05-12T09:16:08.136Z,25.93
2018-05-12T09:18:36.403Z,25.93
2018-05-12T09:21:04.707Z,23.33
2018-05-12T09:23:32.976Z,24.63
2018-05-12T09:26:01.289Z,24.43
2018-05-12T09:28:29.573Z,24.13
2018-05-12T09:30:57.888Z,22.50
2018-05-12T09:33:26.909Z,23.47
2018-05-12T09:35:55.179Z,24.97
2018-05-12T09:38:23.475Z,23.73
2018-05-12T09:40:51.754Z,25.60
2018-05-12T09:43:20.845Z,22.00
2018-05-12T09:45:49.111Z,22.90
2018-05-12T09:48:17.431Z,22.73
2018-05-12T09:50:45.706Z,24.20
2018-05-12T09:53:13.985Z,22.10
2018-05-12T09:55:42.292Z,20.73
2018-05-12T09:58:11.327Z,20.87
2018-05-12T10:00:39.646Z,21.80
2018-05-12T10:03:07.940Z,21.60
2018-05-12T10:05:36.236Z,20.53
2018-05-12T10:08:05.290Z,20.97
2018-05-12T10:10:33.574Z,20.00
2018-05-12T10:13:01.947Z,22.20
2018-05-12T10:15:30.282Z,21.10
2018-05-12T10:17:58.572Z,20.57
2018-05-12T10:20:26.844Z,20.80
2018-05-12T10:22:55.182Z,22.20
2018-05-12T10:25:23.472Z,20.27
2018-05-12T10:27:51.787Z,22.77
2018-05-12T10:30:20.089Z,22.07
2018-05-12T10:32:48.406Z,21.87
2018-05-12T10:35:17.508Z,22.80
2018-05-12T10:37:46.597Z,21.00
2018-05-12T10:40:14.953Z,19.10
2018-05-12T10:42:43.274Z,17.93
2018-05-12T10:45:12.367Z,19.90
2018-05-12T10:47:40.700Z,18.90
2018-05-12T10:50:09.021Z,18.30
2018-05-12T10:52:37.309Z,18.47
2018-05-12T10:55:05.582Z,17.73
2018-05-12T10:57:34.764Z,17.70
2018-05-12T11:00:03.098Z,18.60
2018-05-12T11:02:31.461Z,19.10
2018-05-12T11:04:59.747Z,20.47
2018-05-12T11:07:28.106Z,17.60
2018-05-12T11:09:57.215Z,16.30
2018-05-12T11:12:25.480Z,18.53
2018-05-12T11:14:53.795Z,17.73
2018-05-12T11:17:22.081Z,17.27
2018-05-12T11:19:50.387Z,16.97
2018-05-12T11:22:19.379Z,15.70
2018-05-12T11:24:47.689Z,15.03
2018-05-12T11:27:16.024Z,22.93
2018-05-12T11:29:44.329Z,19.37
2018-05-12T11:32:12.661Z,19.73
2018-05-12T11:34:40.923Z,17.93
2018-05-12T11:37:10.100Z,17.93
2018-05-12T11:39:39.177Z,19.30
2018-05-12T11:42:07.470Z,18.70
2018-05-12T11:44:35.872Z,17.00
2018-05-12T11:47:04.046Z,16.70
2018-05-12T11:49:32.359Z,18.03
2018-05-12T11:52:00.623Z,16.47
2018-05-12T11:54:29.003Z,17.13
2018-05-12T11:56:58.144Z,17.50
2018-05-12T11:59:27.215Z,17.20
2018-05-12T12:01:55.657Z,17.83
2018-05-12T12:04:23.967Z,15.77
2018-05-12T12:06:52.283Z,14.73
2018-05-12T12:09:20.690Z,16.10
2018-05-12T12:11:49.052Z,18.10
2018-05-12T12:14:17.396Z,17.70
2018-05-12T12:16:45.745Z,17.57
2018-05-12T12:19:13.999Z,14.83
2018-05-12T12:21:42.276Z,13.83
2018-05-12T12:24:10.575Z,11.80
2018-05-12T12:26:38.858Z,15.23
2018-05-12T12:29:07.192Z,12.87
2018-05-12T12:31:35.945Z,10.70
2018-05-12T12:34:04.245Z,9.90
2018-05-12T12:36:32.512Z,11.60
2018-05-12T12:39:00.863Z,11.60
2018-05-12T12:41:29.159Z,10.73
2018-05-12T12:43:57.448Z,10.50
2018-05-12T12:46:25.799Z,9.60
2018-05-12T12:48:54.071Z,10.13
2018-05-12T12:51:22.384Z,8.27
2018-05-12T12:53:50.680Z,9.03
2018-05-12T12:56:19.005Z,10.10
2018-05-12T12:58:47.289Z,7.93
2018-05-12T13:01:17.251Z,9.50
2018-05-12T13:03:45.521Z,9.33
2018-05-12T13:06:13.872Z,10.10
2018-05-12T13:08:43.392Z,9.50
2018-05-12T13:11:12.540Z,10.30
2018-05-12T13:13:40.829Z,9.37
2018-05-12T13:16:09.951Z,8.93
2018-05-12T13:18:38.237Z,10.00
2018-05-12T13:21:06.626Z,9.47
2018-05-12T13:23:34.906Z,9.10
2018-05-12T13:26:03.204Z,10.20
2018-05-12T13:28:31.533Z,10.40
2018-05-12T13:30:59.844Z,6.53
2018-05-12T13:33:28.154Z,8.67
2018-05-12T13:35:56.386Z,9.90
2018-05-12T13:38:24.685Z,9.23
2018-05-12T13:40:52.998Z,8.37
2018-05-12T13:43:22.043Z,9.43
2018-05-12T13:45:50.351Z,7.83
2018-05-12T13:48:18.635Z,6.10
2018-05-12T13:50:46.917Z,6.60
2018-05-12T13:53:15.206Z,6.00
2018-05-12T13:55:44.305Z,6.90
2018-05-12T13:58:12.562Z,6.93
2018-05-12T14:00:40.868Z,6.50
2018-05-12T14:03:09.887Z,7.00
2018-05-12T14:05:39.020Z,7.93
2018-05-12T14:08:07.316Z,6.63
2018-05-12T14:10:35.598Z,6.73
2018-05-12T14:13:04.619Z,8.70
2018-05-12T14:15:32.952Z,9.30
2018-05-12T14:18:01.293Z,8.70
2018-05-12T14:20:29.483Z,10.00
2018-05-12T14:22:57.781Z,10.60
2018-05-12T14:25:26.061Z,10.37
2018-05-12T14:27:54.354Z,11.37
2018-05-12T14:30:23.436Z,12.17
2018-05-12T14:32:51.732Z,9.37
2018-05-12T14:35:20.002Z,8.93
2018-05-12T14:37:48.304Z,9.90
2018-05-12T14:40:17.351Z,10.00
2018-05-12T14:42:45.754Z,8.33
2018-05-12T14:45:13.970Z,9.20
2018-05-12T14:47:42.278Z,9.03
2018-05-12T14:50:10.556Z,8.63
2018-05-12T14:52:38.908Z,8.43
2018-05-12T14:55:07.178Z,8.47
2018-05-12T14:57:38.727Z,9.60
2018-05-12T15:00:07.021Z,8.70
2018-05-12T15:02:35.383Z,9.20
2018-05-12T15:05:04.869Z,8.13
2018-05-12T15:07:33.175Z,7.33
2018-05-12T15:10:01.463Z,9.70
2018-05-12T15:12:29.783Z,8.87
2018-05-12T15:14:58.064Z,9.70
2018-05-12T15:17:26.354Z,9.50
2018-05-12T15:19:54.608Z,9.87
2018-05-12T15:22:22.903Z,8.50
2018-05-12T15:24:51.161Z,8.73
2018-05-12T15:27:19.452Z,9.17
2018-05-12T15:29:47.767Z,9.53
2018-05-12T15:32:16.119Z,10.97
2018-05-12T15:34:45.197Z,11.10
2018-05-12T15:37:13.574Z,11.13
2018-05-12T15:39:41.850Z,10.63
2018-05-12T15:42:10.144Z,10.20
2018-05-12T15:44:38.424Z,9.60
2018-05-12T15:47:06.713Z,9.00
2018-05-12T15:49:34.999Z,8.77
2018-05-12T15:52:03.286Z,8.90
2018-05-12T15:54:32.318Z,8.03
2018-05-12T15:57:00.598Z,8.10
2018-05-12T15:59:28.899Z,8.63
2018-05-12T16:01:57.158Z,7.47
2018-05-12T16:04:25.451Z,8.00
2018-05-12T16:06:53.732Z,9.67
2018-05-12T16:09:22.011Z,7.97
2018-05-12T16:11:50.281Z,8.87
2018-05-12T16:14:18.603Z,7.83
2018-05-12T16:16:46.862Z,8.47
2018-05-12T16:19:15.159Z,8.27
2018-05-12T16:21:43.466Z,9.33
2018-05-12T16:24:11.769Z,9.30
2018-05-12T16:26:40.042Z,9.60
2018-05-12T16:29:08.395Z,8.30
2018-05-12T16:31:36.752Z,10.10
2018-05-12T16:34:04.989Z,10.40
2018-05-12T16:36:33.295Z,10.50
2018-05-12T16:39:01.576Z,13.90
2018-05-12T16:41:30.661Z,13.97
2018-05-12T16:43:58.952Z,12.00
2018-05-12T16:46:27.999Z,11.93
2018-05-12T16:48:56.367Z,12.37
2018-05-12T16:51:24.634Z,15.17
2018-05-12T16:53:52.931Z,14.57
2018-05-12T16:56:21.266Z,13.70
2018-05-12T16:58:49.584Z,12.23
2018-05-12T17:01:17.858Z,13.37
2018-05-12T17:03:46.155Z,13.87
2018-05-12T17:06:14.431Z,14.40
2018-05-12T17:08:43.647Z,13.73
2018-05-12T17:11:11.932Z,16.33
2018-05-12T17:13:40.273Z,12.60
2018-05-12T17:16:08.546Z,13.40
2018-05-12T17:18:36.863Z,14.40
2018-05-12T17:21:05.168Z,13.43
2018-05-12T17:23:33.434Z,14.07
2018-05-12T17:26:01.775Z,13.40
2018-05-12T17:28:30.053Z,14.30
2018-05-12T17:30:58.346Z,14.57
2018-05-12T17:33:26.794Z,14.70
2018-05-12T17:35:55.080Z,15.47
2018-05-12T17:38:23.386Z,15.60
2018-05-12T17:40:51.697Z,15.33
2018-05-12T17:43:20.731Z,19.33
2018-05-12T17:45:49.027Z,15.50
2018-05-12T17:48:17.312Z,17.30
2018-05-12T17:50:45.614Z,17.33
2018-05-12T17:53:13.887Z,16.57
2018-05-12T17:55:42.306Z,16.53
2018-05-12T17:58:10.491Z,15.27
2018-05-12T18:00:38.788Z,14.83
2018-05-12T18:03:07.075Z,15.70
2018-05-12T18:05:35.387Z,16.47
2018-05-12T18:08:03.662Z,15.10
2018-05-12T18:10:31.955Z,14.93
2018-05-12T18:13:01.030Z,15.17
2018-05-12T18:15:29.639Z,17.10
2018-05-12T18:17:57.914Z,14.77
2018-05-12T18:20:26.206Z,12.57
2018-05-12T18:22:55.259Z,13.93
2018-05-12T18:25:23.545Z,13.43
2018-05-12T18:27:51.875Z,14.20
2018-05-12T18:30:20.226Z,14.10
2018-05-12T18:32:49.271Z,13.90
2018-05-12T18:35:18.413Z,13.07
2018-05-12T18:37:47.504Z,16.50
2018-05-12T18:40:15.827Z,14.60
2018-05-12T18:42:44.087Z,13.60
2018-05-12T18:45:12.368Z,13.20
2018-05-12T18:47:40.676Z,20.80
2018-05-12T18:50:08.957Z,13.43
2018-05-12T18:52:37.247Z,13.63
2018-05-12T18:55:05.625Z,14.40
2018-05-12T18:57:33.925Z,12.73
2018-05-12T19:00:02.219Z,14.03
2018-05-12T19:02:31.289Z,13.73
2018-05-12T19:04:59.611Z,13.50
2018-05-12T19:07:28.651Z,13.80
2018-05-12T19:09:57.008Z,13.57
2018-05-12T19:12:25.301Z,13.70
2018-05-12T19:14:53.562Z,13.67
2018-05-12T19:17:21.861Z,14.37
2018-05-12T19:19:50.151Z,18.87
2018-05-12T19:22:18.533Z,16.67
2018-05-12T19:24:46.795Z,16.90
2018-05-12T19:27:15.155Z,15.80
2018-05-12T19:29:43.456Z,16.47
2018-05-12T19:32:11.921Z,19.10
2018-05-12T19:34:40.218Z,18.07
2018-05-12T19:37:08.477Z,17.77
2018-05-12T19:39:36.939Z,17.27
2018-05-12T19:42:05.995Z,18.83
2018-05-12T19:44:34.433Z,18.00
2018-05-12T19:47:02.708Z,20.20
2018-05-12T19:49:31.014Z,19.80
2018-05-12T19:51:59.494Z,23.17
2018-05-12T19:54:27.838Z,19.33
2018-05-12T19:56:56.253Z,21.50
2018-05-12T19:59:24.476Z,20.77
2018-05-12T20:01:54.481Z,21.80
2018-05-12T20:04:22.801Z,21.53
2018-05-12T20:06:51.162Z,21.30
2018-05-12T20:09:20.424Z,22.67
2018-05-12T20:11:48.738Z,22.60
2018-05-12T20:14:17.108Z,24.00
2018-05-12T20:16:46.199Z,23.00
2018-05-12T20:19:14.538Z,23.13
2018-05-12T20:21:44.195Z,23.73
2018-05-12T20:24:13.464Z,27.13
2018-05-12T20:26:41.719Z,27.50
2018-05-12T20:29:10.132Z,24.67
2018-05-12T20:31:38.799Z,26.07
2018-05-12T20:34:07.094Z,25.50
2018-05-12T20:36:35.371Z,27.37
2018-05-12T20:39:03.707Z,24.30
2018-05-12T20:41:32.033Z,25.70
2018-05-12T20:44:00.381Z,26.93
2018-05-12T20:46:28.772Z,27.50
2018-05-12T20:48:57.129Z,26.90
2018-05-12T20:51:25.387Z,26.13
2018-05-12T20:53:54.450Z,27.67
2018-05-12T20:56:22.762Z,28.97
2018-05-12T20:58:51.803Z,26.23
2018-05-12T21:01:20.117Z,28.23
2018-05-12T21:03:48.418Z,28.73
2018-05-12T21:06:17.454Z,28.00
2018-05-12T21:08:45.755Z,27.77
2018-05-12T21:11:14.058Z,27.47
2018-05-12T21:13:43.120Z,28.63
2018-05-12T21:16:11.401Z,28.30
2018-05-12T21:18:40.496Z,29.67
2018-05-12T21:21:08.784Z,27.90
2018-05-12T21:23:37.137Z,28.47
2018-05-12T21:26:05.412Z,30.47
2018-05-12T21:28:33.663Z,27.80
2018-05-12T21:31:01.964Z,27.90
2018-05-12T21:33:30.259Z,28.53
2018-05-12T21:35:58.546Z,28.47
2018-05-12T21:38:26.846Z,30.10
2018-05-12T21:40:55.879Z,29.53
2018-05-12T21:43:24.202Z,30.20
2018-05-12T21:45:52.478Z,30.17
2018-05-12T21:48:21.552Z,31.60
2018-05-12T21:50:49.816Z,32.73
2018-05-12T21:53:18.122Z,31.80
2018-05-12T21:55:46.420Z,29.80
2018-05-12T21:58:14.671Z,34.30
2018-05-12T22:00:42.988Z,31.87
2018-05-12T22:03:11.559Z,30.67
2018-05-12T22:05:40.128Z,31.80
2018-05-12T22:08:08.424Z,30.80
2018-05-12T22:10:36.721Z,32.10
2018-05-12T22:13:05.012Z,32.47
2018-05-12T22:15:33.322Z,30.30
2018-05-12T22:18:01.630Z,32.33
2018-05-12T22:20:30.335Z,31.13
2018-05-12T22:22:58.732Z,32.00
2018-05-12T22:25:27.016Z,30.87
2018-05-12T22:27:55.285Z,29.70
2018-05-12T22:30:23.703Z,34.37
2018-05-12T22:32:52.120Z,30.20
2018-05-12T22:35:20.475Z,30.97
2018-05-12T22:37:48.749Z,30.80
2018-05-12T22:40:17.096Z,31.43
2018-05-12T22:42:45.382Z,34.23
2018-05-12T22:45:13.663Z,33.63
2018-05-12T22:47:41.954Z,31.80
2018-05-12T22:50:10.252Z,32.70
2018-05-12T22:52:39.302Z,34.37
2018-05-12T22:55:07.616Z,30.90
2018-05-12T22:57:35.879Z,32.10
2018-05-12T23:00:04.199Z,33.67
2018-05-12T23:02:32.236Z,35.53
2018-05-12T23:05:00.519Z,33.47
2018-05-12T23:07:28.820Z,33.13
2018-05-12T23:09:57.335Z,34.90
2018-05-12T23:12:26.038Z,32.37
2018-05-12T23:14:54.315Z,33.10
2018-05-12T23:17:22.579Z,31.90
2018-05-12T23:19:51.009Z,32.20
2018-05-12T23:22:19.281Z,30.23
2018-05-12T23:24:47.938Z,33.07
2018-05-12T23:27:16.215Z,31.93
2018-05-12T23:29:44.480Z,31.27
2018-05-12T23:32:13.234Z,32.73
2018-05-12T23:34:41.502Z,35.83
2018-05-12T23:37:09.834Z,32.53
2018-05-12T23:39:38.129Z,32.77
2018-05-12T23:42:06.400Z,32.00
2018-05-12T23:44:34.682Z,33.87
2018-05-12T23:47:02.978Z,32.63
2018-05-12T23:49:31.272Z,32.50
2018-05-12T23:51:59.545Z,33.00
2018-05-12T23:54:27.810Z,33.53
2018-05-12T23:56:56.105Z,33.90
2018-05-12T23:59:24.384Z,34.00
